Du har inga inställningar för hoppväder.nu

Hoppväder.nu

Senast uppdaterat 09:57

UTC-tid

2021-06-16 kl. 07:57


Sol och måne

Solen går upp 2:53 och går ner 23:49 (beräknade cirkatider)
Nästa fullmåne blir om 8 dagar (2021-06-24)

METAR

ESNN (Sundsvall)
(7 minuter sedan)
ESNN 160750Z AUTO VRB03KT 9999 OVC061/// 10/02 Q1017=



ESNK (Kramfors)
(7 minuter sedan)
ESNK 160750Z AUTO 29003KT 250V330 9999 OVC064/// 09/01 Q1016=



ESNO (Örnsköldsvik)
(7 minuter sedan)
ESNO 160750Z AUTO 25007KT 9999 SCT074/// OVC092/// 09/03 Q1015=



ESNY (Söderhamn)
ESNY NIL=



ESNZ (Östersund)
(7 minuter sedan)
ESNZ 160750Z AUTO 16006KT 9999 -RA NCD 05/03 Q1015 REDZ=



TAF

ESNN (Sundsvall)
(267 minuter sedan)
ESNN 160330Z 1604/1607 29004KT CAVOK=



ESNK (Kramfors)
ESNK



ESNO (Örnsköldsvik)
(267 minuter sedan)
ESNO 160330Z 1604/1607 26009KT CAVOK=



ESNY (Söderhamn)
ESNY



ESNZ (Östersund)
(267 minuter sedan)
ESNZ 160330Z 1604/1607 27007KT CAVOK BECMG 1605/1607 18010KT=





Kodnycklar till TAF och METAR






LHP

(Sundsvall är område se42d i Delområde 4)

Översikt

ÖVERSIKT FÖR OMRÅDE se4 UTFÄRDAD 160744

GÄLLANDE DEN 16 JUNI 2021 MELLAN 08 OCH 16 UTC


Väderöversikt

En svagare varmfront över södra Norrland försvagas under dagen. En västligströmning över Norrland genererar regnskurar i norra delarna under dagen. I hela fjällkedjan förekommer regnskurar möjligen med snöinslag i högre terräng samt en västlig vind.

Sikt under 5 kilometer eller molnbas under 1000 fot
Väntas inte förekomma under perioden.

Måttlig eller svår isbildning
08-10UTC: I hela området


Måttlig eller svår turbulens
Väntas inte förekomma under perioden

Delområde 4

PROGNOS FÖR OMRÅDE se42 UTFÄRDAD 160744
GÄLLANDE DEN 16 JUNI 2021 MELLAN 08 OCH 16 UTC

Måttlig eller svår turbulens
08-16UTC: I hela området: Väntas inte förekomma under perioden

Måttlig eller svår isbildning
08-10UTC: Område se42a,se42d: måttlig isbildning 3000ft - > FL125

08-16UTC: Område se42c,se42b,se42e: Väntas inte förekomma under perioden

10-16UTC: Område se42a,se42d: Väntas inte förekomma under perioden


Sikt/Väder/Moln
08-12UTC: Område se42a,se42d: Sikt >8km i regn. Molnbas >2000ft.

08-16UTC: Område se42c,se42b,se42e: Sikt >8km. Molnbas >2000ft.

12-16UTC: Område se42a,se42d: Sikt >8km. Molnbas >2000ft.


Molnöversida
08-16UTC: I hela området: Molnöversida > FL125.

CB/TCU Moln
08-16UTC: I hela området: Väntas inte förekomma under perioden

Nollgradersisoterm
08-12UTC: Noll grader 4000ft - FL070.
12-16UTC: Noll grader FL050 - FL100.

Vind vid marken
08-10UTC: Område se42e: SO/4-7 knop, byar upp till 18 knop.
Område se42a: O-SO/0-6 knop, byar upp till 16 knop.
Område se42c: O/0-10 knop, byar upp till 13 knop.
Område se42d: SO-S/0-8 knop, byar upp till 18 knop.
Område se42b: O-SO/0-10 knop, byar upp till 17 knop.

10-12UTC: Område se42b: O-SO/2-10 knop, byar upp till 17 knop.
Område se42e: O-SO/3-9 knop, byar upp till 21 knop.
Område se42c: O/1-13 knop, byar upp till 16 knop.
Område se42d: SO-S/2-12 knop, byar upp till 20 knop.
Område se42a: SO/1-11 knop, byar upp till 18 knop.

12-14UTC: Område se42d: SO-S/1-11 knop, byar upp till 23 knop.
Område se42a: SO/4-12 knop, byar upp till 19 knop.
Område se42b: O-SO/4-14 knop, byar upp till 18 knop.
Område se42e: O-SO/2-10 knop, byar upp till 28 knop.
Område se42c: O/3-16 knop, byar upp till 18 knop.

14-16UTC: Område se42c: O-SO/6-18 knop, byar upp till 22 knop.
Område se42a: SO/3-11 knop, byar upp till 16 knop.
Område se42d: SO/2-10 knop, byar upp till 20 knop.
Område se42b: O-SO/3-18 knop, byar upp till 22 knop.
Område se42e: O-SO/3-8 knop, byar upp till 20 knop.


Genomsnittlig vind och temperatur för området
2000ft:
08-10UTC: 170/9kt +6.
10-12UTC: 200/11kt +7.
12-14UTC: 210/11kt +10.
14-16UTC: 200/10kt +11.

FL50:
08-10UTC: 240/24kt +3.
10-12UTC: 250/22kt +4.
12-14UTC: 240/21kt +4.
14-16UTC: 240/23kt +5.

FL100:
08-10UTC: 260/31kt -4.
10-12UTC: 260/29kt -2.
12-14UTC: 270/29kt -1.
14-16UTC: 280/28kt +0.

Lägsta QNH
1013 hPa.

OBS! endast utbredd måttlig eller svår isbildning och turbulens prognostiseras i LLF.
Avsaknad av isbildning och turbulens i prognosen utesluter inte förekomst av lätt isbildning och turbulens.
För indikation på lätt isbildning, var vänlig kontrollera om prognosen för molntopp ligger högre än nollgradersisotermen.
Förekomst av TCU eller CB medför alltid en risk för måttlig eller svår isbildning och turbulens även om det inte framgår explicit av prognosen.







Spotting

Hur fungerar spotthjälpen och Vindkartan?

Markvind är ca 0-4 m/s med byar på 9 m/s.
Vind på 600 m ca 5 m/s.
Vind på 1500 m ca 12 m/s.
Vind på 3000 m ca 16 m/s.
Feppen flyger ca 20 m/s över marken på finalen.
Du driver ca 718 m bakåt i frifall. (957 m)
Lämplig spot är 21 sekunder eller 421 m efter gropen.
(33 s eller 662 m)
För små grupper eller ensamhoppare bör man vänta 7-10 sekunder mellan grupperna.
För större grupper bör man vänta 15-18 sekunder mellan grupperna.


Vindkartan

Senast uppdaterad 09:57




All data kommer från LFV.se